Time,TemperatureF,DewpointF,PressureIn,WindDirection,WindDirectionDegrees,WindSpeedMPH,WindSpeedGustMPH,Humidity,HourlyPrecipIn,Conditions,Clouds,dailyrainin,SolarRadiationWatts/m^2,SoftwareType,DateUTC
2013-06-16 00:05:00,62.4,55.0,29.93,SSW,200,0.0,-999.0,78,-99.99,,,0.00,0,weatherlink.com 1.10,2013-06-16 05:05:00,
2013-06-16 00:20:00,62.3,55.0,29.92,SSW,200,0.0,-999.0,77,-99.99,,,0.00,0,weatherlink.com 1.10,2013-06-16 05:20:00,
2013-06-16 00:35:00,62.3,55.0,29.92,SSW,200,0.0,-999.0,77,-99.99,,,0.00,0,weatherlink.com 1.10,2013-06-16 05:35:00,
2013-06-16 00:50:00,61.7,55.0,29.92,SSW,200,0.0,-999.0,78,-99.99,,,0.00,0,weatherlink.com 1.10,2013-06-16 05:50:00,
2013-06-16 01:05:00,60.3,54.0,29.92,SSW,200,0.0,-999.0,81,-99.99,,,0.00,0,weatherlink.com 1.10,2013-06-16 06:05:00,
2013-06-16 01:20:00,61.5,55.0,29.92,SSW,200,1.0,-999.0,78,-99.99,,,0.00,0,weatherlink.com 1.10,2013-06-16 06:20:00,
2013-06-16 01:35:00,61.9,55.0,29.92,SSW,200,0.0,-999.0,77,-99.99,,,0.00,0,weatherlink.com 1.10,2013-06-16 06:35:00,
2013-06-16 01:50:00,61.4,54.0,29.92,SSW,200,0.0,-999.0,77,-99.99,,,0.00,0,weatherlink.com 1.10,2013-06-16 06:50:00,
2013-06-16 02:05:00,61.3,54.0,29.92,SSW,200,0.0,-999.0,77,-99.99,,,0.00,0,weatherlink.com 1.10,2013-06-16 07:05:00,
2013-06-16 02:20:00,60.5,54.0,29.92,SSW,200,0.0,-999.0,78,-99.99,,,0.00,0,weatherlink.com 1.10,2013-06-16 07:20:00,
2013-06-16 02:35:00,60.2,53.0,29.92,SSW,200,0.0,-999.0,78,-99.99,,,0.00,0,weatherlink.com 1.10,2013-06-16 07:35:00,
2013-06-16 02:50:00,61.1,53.0,29.92,SSW,200,0.0,-999.0,75,-99.99,,,0.00,0,weatherlink.com 1.10,2013-06-16 07:50:00,
2013-06-16 03:05:00,61.4,53.0,29.92,SSW,200,0.0,-999.0,74,-99.99,,,0.00,0,weatherlink.com 1.10,2013-06-16 08:05:00,
2013-06-16 03:20:00,61.2,53.0,29.92,SSW,200,0.0,-999.0,74,-99.99,,,0.00,0,weatherlink.com 1.10,2013-06-16 08:20:00,
2013-06-16 03:35:00,60.6,52.0,29.92,SSW,200,0.0,-999.0,74,-99.99,,,0.00,0,weatherlink.com 1.10,2013-06-16 08:35:00,
2013-06-16 03:50:00,60.5,53.0,29.93,SSW,200,0.0,-999.0,75,-99.99,,,0.00,0,weatherlink.com 1.10,2013-06-16 08:50:00,
2013-06-16 04:05:00,60.5,53.0,29.93,SSW,200,0.0,-999.0,75,-99.99,,,0.00,0,weatherlink.com 1.10,2013-06-16 09:05:00,
2013-06-16 04:20:00,60.4,52.0,29.92,SSW,200,0.0,-999.0,74,-99.99,,,0.00,0,weatherlink.com 1.10,2013-06-16 09:20:00,
2013-06-16 04:35:00,60.5,52.0,29.93,SSW,200,0.0,-999.0,74,-99.99,,,0.00,0,weatherlink.com 1.10,2013-06-16 09:35:00,
2013-06-16 04:50:00,60.2,52.0,29.95,SSW,200,0.0,-999.0,74,-99.99,,,0.00,0,weatherlink.com 1.10,2013-06-16 09:50:00,
2013-06-16 05:05:00,59.8,52.0,29.94,SSW,200,0.0,-999.0,75,-99.99,,,0.00,0,weatherlink.com 1.10,2013-06-16 10:05:00,
2013-06-16 05:21:00,59.2,51.0,29.94,SSW,200,0.0,-999.0,75,-99.99,,,0.00,0,weatherlink.com 1.10,2013-06-16 10:21:00,
2013-06-16 05:36:00,58.8,52.0,29.94,SSW,200,0.0,-999.0,77,-99.99,,,0.00,5,weatherlink.com 1.10,2013-06-16 10:36:00,
2013-06-16 05:51:00,58.4,52.0,29.94,SSW,200,0.0,-999.0,78,-99.99,,,0.00,11,weatherlink.com 1.10,2013-06-16 10:51:00,
2013-06-16 06:06:00,58.8,52.0,29.95,SSW,200,0.0,-999.0,77,-99.99,,,0.00,14,weatherlink.com 1.10,2013-06-16 11:06:00,
2013-06-16 06:21:00,58.5,52.0,29.95,SSW,200,0.0,-999.0,79,-99.99,,,0.00,19,weatherlink.com 1.10,2013-06-16 11:21:00,
2013-06-16 06:36:00,58.5,52.0,29.95,SSW,200,0.0,-999.0,80,-99.99,,,0.00,21,weatherlink.com 1.10,2013-06-16 11:36:00,
2013-06-16 06:51:00,59.3,54.0,29.96,SSW,200,2.0,-999.0,82,-99.99,,,0.00,25,weatherlink.com 1.10,2013-06-16 11:51:00,
2013-06-16 07:06:00,59.6,54.0,29.96,SSW,200,0.0,-999.0,82,-99.99,,,0.00,26,weatherlink.com 1.10,2013-06-16 12:06:00,
2013-06-16 07:21:00,60.4,55.0,29.97,SSW,200,0.0,-999.0,82,-99.99,,,0.00,28,weatherlink.com 1.10,2013-06-16 12:21:00,
2013-06-16 07:36:00,61.6,56.0,29.96,SSW,200,1.0,-999.0,81,-99.99,,,0.00,32,weatherlink.com 1.10,2013-06-16 12:36:00,
2013-06-16 07:52:00,64.0,56.0,29.97,West,281,2.0,-999.0,76,-99.99,,,0.00,209,weatherlink.com 1.10,2013-06-16 12:52:00,
2013-06-16 08:07:00,66.0,57.0,29.96,West,266,0.0,-999.0,72,-99.99,,,0.00,359,weatherlink.com 1.10,2013-06-16 13:07:00,
2013-06-16 08:22:00,67.5,58.0,29.96,West,259,0.0,-999.0,71,-99.99,,,0.00,403,weatherlink.com 1.10,2013-06-16 13:22:00,
2013-06-16 08:37:00,68.9,58.0,29.96,WSW,257,1.0,-999.0,68,-99.99,,,0.00,448,weatherlink.com 1.10,2013-06-16 13:37:00,
2013-06-16 08:52:00,70.5,58.0,29.96,West,261,3.0,-999.0,64,-99.99,,,0.00,494,weatherlink.com 1.10,2013-06-16 13:52:00,
2013-06-16 09:07:00,71.9,57.0,29.96,West,272,3.0,-999.0,60,-99.99,,,0.00,534,weatherlink.com 1.10,2013-06-16 14:07:00,
2013-06-16 09:23:00,73.0,59.0,29.96,West,266,3.0,-999.0,62,-99.99,,,0.00,578,weatherlink.com 1.10,2013-06-16 14:23:00,
2013-06-16 09:37:00,74.0,56.0,29.96,WNW,286,2.0,-999.0,54,-99.99,,,0.00,615,weatherlink.com 1.10,2013-06-16 14:37:00,
2013-06-16 09:53:00,75.0,60.0,29.96,WSW,243,3.0,-999.0,59,-99.99,,,0.00,652,weatherlink.com 1.10,2013-06-16 14:53:00,
2013-06-16 10:08:00,75.9,59.0,29.96,NNW,334,5.0,-999.0,57,-99.99,,,0.00,687,weatherlink.com 1.10,2013-06-16 15:08:00,
2013-06-16 10:23:00,76.3,56.0,29.96,WNW,291,1.0,-999.0,49,-99.99,,,0.00,724,weatherlink.com 1.10,2013-06-16 15:23:00,
2013-06-16 10:38:00,77.0,56.0,29.96,WSW,250,4.0,-999.0,48,-99.99,,,0.00,758,weatherlink.com 1.10,2013-06-16 15:38:00,
2013-06-16 10:53:00,77.2,55.0,29.95,West,265,1.0,-999.0,47,-99.99,,,0.00,780,weatherlink.com 1.10,2013-06-16 15:53:00,
2013-06-16 11:08:00,78.1,57.0,29.95,WNW,289,3.0,-999.0,48,-99.99,,,0.00,798,weatherlink.com 1.10,2013-06-16 16:08:00,
2013-06-16 11:23:00,78.9,53.0,29.95,NW,320,8.0,-999.0,40,-99.99,,,0.00,837,weatherlink.com 1.10,2013-06-16 16:23:00,
2013-06-16 11:39:00,79.2,51.0,29.95,West,269,5.0,-999.0,38,-99.99,,,0.00,860,weatherlink.com 1.10,2013-06-16 16:39:00,
2013-06-16 11:54:00,79.7,53.0,29.95,NW,309,3.0,-999.0,40,-99.99,,,0.00,877,weatherlink.com 1.10,2013-06-16 16:54:00,
2013-06-16 12:09:00,79.7,50.0,29.94,NNW,344,6.0,-999.0,36,-99.99,,,0.00,909,weatherlink.com 1.10,2013-06-16 17:09:00,
2013-06-16 12:24:00,80.0,47.0,29.94,NNW,340,5.0,-999.0,31,-99.99,,,0.00,914,weatherlink.com 1.10,2013-06-16 17:24:00,
2013-06-16 12:39:00,80.6,49.0,29.94,WSW,244,4.0,-999.0,33,-99.99,,,0.00,923,weatherlink.com 1.10,2013-06-16 17:39:00,
2013-06-16 12:54:00,80.4,49.0,29.94,WNW,300,4.0,-999.0,33,-99.99,,,0.00,926,weatherlink.com 1.10,2013-06-16 17:54:00,
2013-06-16 13:09:00,80.9,52.0,29.94,WNW,292,3.0,-999.0,37,-99.99,,,0.00,947,weatherlink.com 1.10,2013-06-16 18:09:00,
2013-06-16 13:25:00,81.6,51.0,29.93,West,263,5.0,-999.0,35,-99.99,,,0.00,963,weatherlink.com 1.10,2013-06-16 18:25:00,
2013-06-16 13:40:00,82.3,50.0,29.94,NNW,327,5.0,-999.0,32,-99.99,,,0.00,1074,weatherlink.com 1.10,2013-06-16 18:40:00,
2013-06-16 13:55:00,81.7,50.0,29.94,NW,320,7.0,-999.0,33,-99.99,,,0.00,963,weatherlink.com 1.10,2013-06-16 18:55:00,
2013-06-16 14:10:00,82.4,49.0,29.93,West,270,3.0,-999.0,31,-99.99,,,0.00,912,weatherlink.com 1.10,2013-06-16 19:10:00,
2013-06-16 14:25:00,83.2,52.0,29.94,WNW,298,3.0,-999.0,34,-99.99,,,0.00,933,weatherlink.com 1.10,2013-06-16 19:25:00,
2013-06-16 14:40:00,83.4,50.0,29.93,West,277,5.0,-999.0,31,-99.99,,,0.00,791,weatherlink.com 1.10,2013-06-16 19:40:00,
2013-06-16 14:55:00,82.5,50.0,29.93,West,276,6.0,-999.0,32,-99.99,,,0.00,875,weatherlink.com 1.10,2013-06-16 19:55:00,
2013-06-16 15:10:00,83.7,48.0,29.93,NW,321,4.0,-999.0,29,-99.99,,,0.00,802,weatherlink.com 1.10,2013-06-16 20:10:00,
2013-06-16 15:26:00,83.3,49.0,29.92,NW,323,2.0,-999.0,30,-99.99,,,0.00,752,weatherlink.com 1.10,2013-06-16 20:26:00,
2013-06-16 15:41:00,84.3,49.0,29.91,WSW,257,10.0,-999.0,29,-99.99,,,0.00,775,weatherlink.com 1.10,2013-06-16 20:41:00,
2013-06-16 15:56:00,83.8,48.0,29.91,West,261,2.0,-999.0,29,-99.99,,,0.00,754,weatherlink.com 1.10,2013-06-16 20:56:00,
2013-06-16 16:11:00,83.9,49.0,29.90,SW,219,3.0,-999.0,30,-99.99,,,0.00,613,weatherlink.com 1.10,2013-06-16 21:11:00,
2013-06-16 16:26:00,84.3,50.0,29.89,WSW,257,5.0,-999.0,30,-99.99,,,0.00,705,weatherlink.com 1.10,2013-06-16 21:26:00,
2013-06-16 16:41:00,84.8,52.0,29.89,WSW,257,8.0,-999.0,32,-99.99,,,0.00,462,weatherlink.com 1.10,2013-06-16 21:41:00,
2013-06-16 16:56:00,83.0,51.0,29.89,West,278,3.0,-999.0,33,-99.99,,,0.00,197,weatherlink.com 1.10,2013-06-16 21:56:00,
2013-06-16 17:11:00,82.3,51.0,29.89,NW,317,3.0,-999.0,34,-99.99,,,0.00,46,weatherlink.com 1.10,2013-06-16 22:11:00,
2013-06-16 17:26:00,76.3,56.0,29.91,North,11,2.0,-999.0,50,-99.99,,,0.01,9,weatherlink.com 1.10,2013-06-16 22:26:00,
2013-06-16 17:41:00,68.1,56.0,29.94,North,355,6.0,-999.0,65,-99.99,,,0.04,25,weatherlink.com 1.10,2013-06-16 22:41:00,
2013-06-16 17:56:00,66.9,56.0,29.92,NNW,335,2.0,-999.0,67,-99.99,,,0.06,18,weatherlink.com 1.10,2013-06-16 22:56:00,
2013-06-16 18:11:00,66.7,57.0,29.96,NW,306,4.0,-999.0,71,-99.99,,,0.07,19,weatherlink.com 1.10,2013-06-16 23:11:00,
2013-06-16 18:26:00,66.8,58.0,29.92,NNW,345,4.0,-999.0,74,-99.99,,,0.08,243,weatherlink.com 1.10,2013-06-16 23:26:00,
2013-06-16 18:42:00,69.9,60.0,29.90,NNW,339,2.0,-999.0,71,-99.99,,,0.09,315,weatherlink.com 1.10,2013-06-16 23:42:00,
2013-06-16 18:57:00,70.9,63.0,29.90,NNW,333,0.0,-999.0,75,-99.99,,,0.09,109,weatherlink.com 1.10,2013-06-16 23:57:00,
2013-06-16 19:12:00,69.6,62.0,29.89,NNW,333,0.0,-999.0,77,-99.99,,,0.10,185,weatherlink.com 1.10,2013-06-17 00:12:00,
2013-06-16 19:27:00,70.0,63.0,29.89,SSE,166,2.0,-999.0,77,-99.99,,,0.10,223,weatherlink.com 1.10,2013-06-17 00:27:00,
2013-06-16 19:42:00,71.1,63.0,29.88,SSE,168,0.0,-999.0,75,-99.99,,,0.11,141,weatherlink.com 1.10,2013-06-17 00:42:00,
2013-06-16 19:57:00,71.3,63.0,29.88,SSE,168,0.0,-999.0,76,-99.99,,,0.11,95,weatherlink.com 1.10,2013-06-17 00:57:00,
2013-06-16 20:12:00,70.5,63.0,29.88,SSE,168,0.0,-999.0,77,-99.99,,,0.11,30,weatherlink.com 1.10,2013-06-17 01:12:00,
2013-06-16 20:27:00,70.1,63.0,29.88,SSE,168,0.0,-999.0,79,-99.99,,,0.12,23,weatherlink.com 1.10,2013-06-17 01:27:00,
2013-06-16 20:42:00,69.2,63.0,29.88,SSE,168,0.0,-999.0,81,-99.99,,,0.12,14,weatherlink.com 1.10,2013-06-17 01:42:00,
2013-06-16 20:58:00,67.9,63.0,29.88,SSE,168,0.0,-999.0,83,-99.99,,,0.12,7,weatherlink.com 1.10,2013-06-17 01:58:00,
2013-06-16 21:13:00,67.0,62.0,29.88,SSE,168,0.0,-999.0,84,-99.99,,,0.12,0,weatherlink.com 1.10,2013-06-17 02:13:00,
2013-06-16 21:28:00,66.4,62.0,29.89,SSE,168,0.0,-999.0,85,-99.99,,,0.12,0,weatherlink.com 1.10,2013-06-17 02:28:00,
2013-06-16 21:43:00,66.2,62.0,29.89,SSE,168,0.0,-999.0,86,-99.99,,,0.12,0,weatherlink.com 1.10,2013-06-17 02:43:00,
2013-06-16 21:58:00,65.9,61.0,29.90,SSE,168,0.0,-999.0,85,-99.99,,,0.12,0,weatherlink.com 1.10,2013-06-17 02:58:00,
2013-06-16 22:13:00,65.5,61.0,29.90,SSE,168,0.0,-999.0,86,-99.99,,,0.12,0,weatherlink.com 1.10,2013-06-17 03:13:00,
2013-06-16 22:28:00,64.5,60.0,29.90,SSE,168,0.0,-999.0,86,-99.99,,,0.12,0,weatherlink.com 1.10,2013-06-17 03:28:00,
2013-06-16 22:43:00,63.8,60.0,29.90,SSE,168,0.0,-999.0,87,-99.99,,,0.12,0,weatherlink.com 1.10,2013-06-17 03:43:00,
2013-06-16 22:58:00,64.3,59.0,29.91,South,188,1.0,-999.0,84,-99.99,,,0.12,0,weatherlink.com 1.10,2013-06-17 03:58:00,
2013-06-16 23:13:00,64.3,59.0,29.90,South,173,0.0,-999.0,84,-99.99,,,0.12,0,weatherlink.com 1.10,2013-06-17 04:13:00,
2013-06-16 23:28:00,63.8,60.0,29.90,South,173,0.0,-999.0,86,-99.99,,,0.12,0,weatherlink.com 1.10,2013-06-17 04:28:00,
2013-06-16 23:43:00,63.1,60.0,29.90,South,173,0.0,-999.0,88,-99.99,,,0.12,0,weatherlink.com 1.10,2013-06-17 04:43:00,
2013-06-16 23:58:00,62.8,59.0,29.90,South,172,0.0,-999.0,88,-99.99,,,0.12,0,weatherlink.com 1.10,2013-06-17 04:58:00,